createdAt,value
2019-03-05T00:01:09.061Z,21.37
2019-03-05T00:03:39.178Z,14.17
2019-03-05T00:06:09.378Z,26.03
2019-03-05T00:08:39.385Z,24.23
2019-03-05T00:11:09.510Z,48.37
2019-03-05T00:13:39.709Z,22.27
2019-03-05T00:16:09.901Z,24.20
2019-03-05T00:18:39.917Z,27.27
2019-03-05T00:21:09.946Z,26.40
2019-03-05T00:24:11.857Z,24.97
2019-03-05T00:26:42.058Z,26.13
2019-03-05T00:29:58.937Z,36.27
2019-03-05T00:32:28.957Z,22.17
2019-03-05T00:36:00.678Z,24.17
2019-03-05T00:39:11.987Z,32.00
2019-03-05T00:42:05.780Z,32.30
2019-03-05T00:45:11.135Z,25.33
2019-03-05T00:48:18.220Z,21.20
2019-03-05T00:51:24.543Z,26.90
2019-03-05T00:54:20.661Z,23.57
2019-03-05T00:57:08.016Z,17.67
2019-03-05T01:00:04.011Z,23.63
2019-03-05T01:03:00.277Z,25.30
2019-03-05T01:06:06.499Z,21.10
2019-03-05T01:08:36.622Z,21.27
2019-03-05T01:11:06.994Z,27.27
2019-03-05T01:13:37.440Z,16.03
2019-03-05T01:16:08.021Z,12.33
2019-03-05T01:18:38.068Z,26.70
2019-03-05T01:21:08.272Z,19.60
2019-03-05T01:23:38.467Z,15.27
2019-03-05T01:26:08.578Z,22.10
2019-03-05T01:28:38.703Z,28.07
2019-03-05T01:31:18.373Z,14.10
2019-03-05T01:33:59.744Z,10.73
2019-03-05T01:36:32.362Z,10.47
2019-03-05T01:39:30.752Z,21.67
2019-03-05T01:42:01.077Z,20.30
2019-03-05T01:44:31.195Z,22.70
2019-03-05T01:47:01.404Z,16.53
2019-03-05T01:49:31.605Z,26.17
2019-03-05T01:52:01.610Z,31.33
2019-03-05T01:54:31.631Z,17.53
2019-03-05T01:57:01.827Z,31.70
2019-03-05T01:59:32.018Z,25.97
2019-03-05T02:02:02.117Z,16.60
2019-03-05T02:04:32.237Z,26.70
2019-03-05T02:07:02.431Z,18.93
2019-03-05T02:09:32.620Z,18.90
2019-03-05T02:12:02.833Z,18.07
2019-03-05T02:14:33.024Z,13.53
2019-03-05T02:17:03.131Z,19.23
2019-03-05T02:19:50.230Z,13.43
2019-03-05T02:22:32.975Z,13.80
2019-03-05T02:25:31.848Z,22.93
2019-03-05T02:28:39.866Z,16.43
2019-03-05T02:31:45.539Z,18.03
2019-03-05T02:34:49.782Z,14.23
2019-03-05T02:37:48.483Z,39.60
2019-03-05T02:40:41.155Z,15.60
2019-03-05T02:43:34.379Z,18.80
2019-03-05T02:46:50.435Z,14.43
2019-03-05T02:49:42.093Z,16.40
2019-03-05T02:52:51.492Z,24.40
2019-03-05T02:55:47.086Z,30.87
2019-03-05T02:58:14.920Z,14.43
2019-03-05T03:01:01.324Z,14.90
2019-03-05T03:03:35.597Z,15.60
2019-03-05T03:06:27.717Z,24.00
2019-03-05T03:09:44.203Z,18.10
2019-03-05T03:12:14.119Z,27.97
2019-03-05T03:14:44.331Z,15.93
2019-03-05T03:17:14.516Z,14.50
2019-03-05T03:19:44.614Z,18.73
2019-03-05T03:22:14.623Z,14.53
2019-03-05T03:24:44.845Z,20.23
2019-03-05T03:27:15.028Z,20.27
2019-03-05T03:29:45.027Z,18.90
2019-03-05T03:32:15.070Z,16.33
2019-03-05T03:34:45.309Z,22.97
2019-03-05T03:37:15.557Z,14.90
2019-03-05T03:39:45.474Z,18.03
2019-03-05T03:42:15.759Z,21.70
2019-03-05T03:44:45.963Z,18.77
2019-03-05T03:47:15.983Z,16.07
2019-03-05T03:49:46.186Z,19.43
2019-03-05T03:52:16.383Z,15.47
2019-03-05T03:54:46.584Z,17.43
2019-03-05T03:57:16.647Z,26.00
2019-03-05T03:59:46.863Z,19.77
2019-03-05T04:02:17.122Z,17.23
2019-03-05T04:04:47.128Z,15.27
2019-03-05T04:07:17.230Z,21.50
2019-03-05T04:09:47.461Z,15.87
2019-03-05T04:12:17.643Z,13.80
2019-03-05T04:14:47.749Z,18.37
2019-03-05T04:17:17.868Z,13.57
2019-03-05T04:19:48.060Z,15.00
2019-03-05T04:22:18.185Z,14.67
2019-03-05T04:24:48.375Z,17.53
2019-03-05T04:27:18.565Z,117.27
2019-03-05T04:29:48.566Z,19.10
2019-03-05T04:32:18.477Z,18.70
2019-03-05T04:34:48.673Z,26.20
2019-03-05T04:37:18.863Z,18.10
2019-03-05T04:39:48.771Z,22.93
2019-03-05T04:42:18.789Z,24.30
2019-03-05T04:44:57.682Z,24.03
2019-03-05T04:47:28.046Z,94.83
2019-03-05T04:50:06.666Z,71.40
2019-03-05T04:52:37.972Z,56.83
2019-03-05T04:55:08.919Z,62.73
2019-03-05T04:57:39.211Z,51.43
2019-03-05T05:00:12.790Z,37.47
2019-03-05T05:02:42.977Z,29.50
2019-03-05T05:05:13.086Z,37.60
2019-03-05T05:07:42.994Z,35.80
2019-03-05T05:10:13.281Z,46.43
2019-03-05T05:12:43.475Z,44.67
2019-03-05T05:15:44.751Z,37.40
2019-03-05T05:18:14.777Z,114.87
2019-03-05T05:20:45.021Z,48.43
2019-03-05T05:23:15.240Z,48.33
2019-03-05T05:25:45.266Z,62.90
2019-03-05T05:28:15.175Z,61.57
2019-03-05T05:30:45.496Z,54.87
2019-03-05T05:33:15.723Z,67.77
2019-03-05T05:35:45.704Z,56.67
2019-03-05T05:38:15.815Z,70.70
2019-03-05T05:40:47.061Z,148.10
2019-03-05T05:43:22.893Z,489.67
2019-03-05T05:45:53.557Z,189.33
2019-03-05T05:48:23.767Z,223.23
2019-03-05T05:50:53.769Z,77.40
2019-03-05T05:53:23.888Z,23.77
2019-03-05T05:55:54.080Z,28.80
2019-03-05T05:58:24.285Z,26.17
2019-03-05T06:00:56.708Z,22.70
2019-03-05T06:03:26.739Z,11.67
2019-03-05T06:05:57.146Z,15.67
2019-03-05T06:08:27.339Z,20.50
2019-03-05T06:10:57.455Z,11.57
2019-03-05T06:13:27.525Z,28.13
2019-03-05T06:15:57.778Z,27.20
2019-03-05T06:18:27.981Z,18.63
2019-03-05T06:20:57.886Z,31.43
2019-03-05T06:23:27.812Z,15.33
2019-03-05T06:25:58.009Z,78.87
2019-03-05T06:28:28.228Z,36.70
2019-03-05T06:30:58.122Z,43.07
2019-03-05T06:33:28.191Z,37.40
2019-03-05T06:35:58.658Z,34.37
2019-03-05T06:38:29.084Z,17.33
2019-03-05T06:40:58.994Z,38.67
2019-03-05T06:43:28.903Z,45.27
2019-03-05T06:45:59.443Z,33.20
2019-03-05T06:48:29.876Z,42.70
2019-03-05T06:50:59.790Z,37.37
2019-03-05T06:53:29.793Z,34.17
2019-03-05T06:56:00.001Z,42.33
2019-03-05T06:58:30.192Z,34.50
2019-03-05T07:01:00.293Z,31.77
2019-03-05T07:03:30.530Z,32.90
2019-03-05T07:06:36.019Z,59.10
2019-03-05T07:09:15.154Z,26.00
2019-03-05T07:12:13.187Z,28.93
2019-03-05T07:15:48.190Z,30.57
2019-03-05T07:18:31.823Z,38.83
2019-03-05T07:21:26.027Z,31.87
2019-03-05T07:24:38.395Z,24.77
2019-03-05T07:27:09.594Z,21.60
2019-03-05T07:29:39.787Z,18.90
2019-03-05T07:32:09.904Z,18.50
2019-03-05T07:34:42.575Z,17.10
2019-03-05T07:37:13.957Z,14.63
2019-03-05T07:39:43.960Z,11.60
2019-03-05T07:42:13.980Z,11.53
2019-03-05T07:44:44.394Z,10.70
2019-03-05T07:47:14.539Z,23.27
2019-03-05T07:49:44.833Z,10.97
2019-03-05T07:52:15.047Z,10.03
2019-03-05T07:54:44.947Z,11.80
2019-03-05T07:57:14.917Z,18.50
2019-03-05T07:59:45.113Z,15.20
2019-03-05T08:02:15.300Z,13.00
2019-03-05T08:04:45.225Z,17.07
2019-03-05T08:07:15.230Z,13.23
2019-03-05T08:09:45.438Z,16.37
2019-03-05T08:12:53.196Z,12.93
2019-03-05T08:16:01.728Z,19.17
2019-03-05T08:18:22.556Z,11.23
2019-03-05T08:20:52.800Z,12.17
2019-03-05T08:23:22.993Z,10.07
2019-03-05T08:25:52.912Z,11.63
2019-03-05T08:28:23.102Z,11.27
2019-03-05T08:30:53.093Z,9.47
2019-03-05T08:33:23.005Z,12.13
2019-03-05T08:35:53.210Z,13.93
2019-03-05T08:38:23.385Z,8.37
2019-03-05T08:40:53.503Z,9.40
2019-03-05T08:43:23.612Z,9.37
2019-03-05T08:45:53.989Z,10.37
2019-03-05T08:48:24.205Z,7.97
2019-03-05T08:50:54.197Z,18.83
2019-03-05T08:53:24.432Z,19.10
2019-03-05T08:55:54.669Z,13.83
2019-03-05T08:58:24.870Z,22.60
2019-03-05T09:00:54.982Z,19.93
2019-03-05T09:03:24.995Z,18.10
2019-03-05T09:05:55.185Z,16.10
2019-03-05T09:08:25.307Z,16.23
2019-03-05T09:10:56.107Z,12.23
2019-03-05T09:13:32.730Z,15.87
2019-03-05T09:15:58.124Z,11.60
2019-03-05T09:18:28.027Z,9.43
2019-03-05T09:20:58.240Z,11.10
2019-03-05T09:23:28.420Z,9.83
2019-03-05T09:25:58.430Z,8.47
2019-03-05T09:28:28.440Z,7.93
2019-03-05T09:30:58.645Z,15.47
2019-03-05T09:33:28.827Z,10.93
2019-03-05T09:35:58.826Z,17.20
2019-03-05T09:38:28.847Z,8.33
2019-03-05T09:40:59.082Z,8.50
2019-03-05T09:43:29.267Z,7.47
2019-03-05T09:45:59.786Z,8.03
2019-03-05T09:48:30.252Z,24.50
2019-03-05T09:51:00.263Z,6.97
2019-03-05T09:53:30.372Z,11.40
2019-03-05T09:56:00.746Z,9.30
2019-03-05T09:58:31.004Z,8.10
2019-03-05T10:01:00.946Z,10.03
2019-03-05T10:03:31.076Z,9.10
2019-03-05T10:06:01.293Z,16.13
2019-03-05T10:08:32.661Z,15.00
2019-03-05T10:11:03.064Z,11.90
2019-03-05T10:13:33.084Z,19.07
2019-03-05T10:16:03.379Z,8.00
2019-03-05T10:21:32.856Z,7.23
2019-03-05T10:24:10.408Z,7.93
2019-03-05T10:26:35.206Z,8.30
2019-03-05T10:29:07.576Z,6.50
2019-03-05T10:31:37.790Z,10.70
2019-03-05T10:34:09.458Z,6.63
2019-03-05T10:36:39.566Z,6.50
2019-03-05T10:39:30.685Z,8.47
2019-03-05T10:41:56.246Z,8.17
2019-03-05T10:44:26.452Z,10.30
2019-03-05T10:46:56.553Z,9.80
2019-03-05T10:49:26.858Z,7.00
2019-03-05T10:51:58.807Z,5.33
2019-03-05T10:54:29.143Z,5.30
2019-03-05T10:56:59.283Z,5.53
2019-03-05T10:59:29.310Z,5.63
2019-03-05T11:01:59.585Z,10.07
2019-03-05T11:04:29.774Z,5.57
2019-03-05T11:06:59.962Z,5.50
2019-03-05T11:09:30.150Z,10.30
2019-03-05T11:12:00.774Z,5.23
2019-03-05T11:14:31.318Z,5.27
2019-03-05T11:17:01.514Z,8.23
2019-03-05T11:19:31.699Z,6.77
2019-03-05T11:22:02.400Z,6.77
2019-03-05T11:24:32.949Z,5.83
2019-03-05T11:27:03.417Z,12.33
2019-03-05T11:29:34.036Z,5.00
2019-03-05T11:32:04.468Z,5.80
2019-03-05T11:34:35.028Z,9.60
2019-03-05T11:37:05.552Z,5.33
2019-03-05T11:39:35.952Z,5.93
2019-03-05T11:42:06.292Z,12.50
2019-03-05T11:44:36.787Z,5.97
2019-03-05T11:47:07.040Z,7.90
2019-03-05T11:49:37.231Z,6.67
2019-03-05T11:52:07.385Z,6.60
2019-03-05T11:54:37.408Z,5.50
2019-03-05T11:57:07.629Z,7.50
2019-03-05T11:59:37.815Z,4.93
2019-03-05T12:02:09.810Z,5.90
2019-03-05T12:04:39.973Z,6.20
2019-03-05T12:07:10.170Z,8.83
2019-03-05T12:09:40.364Z,8.93
2019-03-05T12:12:10.383Z,7.47
2019-03-05T12:14:40.402Z,7.67
2019-03-05T12:17:10.599Z,5.00
2019-03-05T12:19:40.894Z,6.53
2019-03-05T12:22:11.140Z,6.43
2019-03-05T12:24:41.333Z,6.50
2019-03-05T12:27:11.491Z,9.00
2019-03-05T12:29:41.507Z,13.80
2019-03-05T12:32:11.708Z,6.10
2019-03-05T12:34:41.906Z,7.90
2019-03-05T12:37:11.921Z,4.80
2019-03-05T12:39:42.578Z,6.00
2019-03-05T12:42:12.772Z,7.47
2019-03-05T12:44:42.976Z,4.83
2019-03-05T12:47:13.071Z,6.90
2019-03-05T12:49:42.981Z,6.23
2019-03-05T12:52:13.492Z,5.90
2019-03-05T12:54:43.691Z,7.60
2019-03-05T12:57:13.867Z,8.63
2019-03-05T12:59:43.966Z,7.27
2019-03-05T13:02:14.239Z,8.23
2019-03-05T13:04:44.434Z,6.63
2019-03-05T13:07:17.774Z,9.33
2019-03-05T13:09:46.363Z,10.80
2019-03-05T13:12:16.385Z,5.63
2019-03-05T13:14:46.377Z,5.20
2019-03-05T13:17:16.645Z,6.23
2019-03-05T13:19:47.942Z,5.10
2019-03-05T13:22:19.035Z,7.83
2019-03-05T13:24:50.308Z,4.40
2019-03-05T13:27:22.809Z,3.00
2019-03-05T13:29:53.212Z,4.33
2019-03-05T13:32:23.103Z,3.80
2019-03-05T13:34:53.107Z,5.50
2019-03-05T13:37:24.876Z,4.43
2019-03-05T13:39:58.144Z,10.93
2019-03-05T13:42:29.109Z,5.00
2019-03-05T13:44:58.619Z,4.67
2019-03-05T13:47:28.815Z,3.87
2019-03-05T13:50:45.431Z,4.03
2019-03-05T13:53:35.327Z,3.60
2019-03-05T13:56:51.819Z,7.47
2019-03-05T13:59:43.980Z,4.30
2019-03-05T14:02:16.344Z,3.10
2019-03-05T14:04:55.808Z,2.70
2019-03-05T14:07:59.928Z,3.40
2019-03-05T14:10:30.035Z,4.00
2019-03-05T14:13:00.127Z,3.93
2019-03-05T14:15:30.601Z,5.03
2019-03-05T14:18:00.969Z,3.50
2019-03-05T14:20:34.980Z,7.03
2019-03-05T14:23:04.087Z,3.90
2019-03-05T14:25:34.444Z,4.73
2019-03-05T14:28:04.629Z,6.07
2019-03-05T14:30:35.663Z,5.17
2019-03-05T14:33:06.373Z,4.00
2019-03-05T14:35:36.719Z,3.50
2019-03-05T14:38:06.936Z,7.13
2019-03-05T14:40:37.997Z,6.83
2019-03-05T14:43:08.550Z,12.40
2019-03-05T14:45:39.123Z,4.80
2019-03-05T14:48:09.166Z,4.13
2019-03-05T14:50:39.624Z,7.47
2019-03-05T14:53:09.831Z,7.33
2019-03-05T14:55:39.937Z,10.40
2019-03-05T14:58:10.043Z,7.10
2019-03-05T15:00:40.700Z,8.97
2019-03-05T15:03:10.949Z,70.20
2019-03-05T15:05:41.452Z,6.93
2019-03-05T15:08:11.559Z,4.23
2019-03-05T15:10:41.880Z,9.53
2019-03-05T15:13:15.766Z,5.20
2019-03-05T15:15:43.703Z,9.83
2019-03-05T15:18:13.989Z,5.37
2019-03-05T15:20:43.989Z,4.90
2019-03-05T15:23:14.448Z,10.57
2019-03-05T15:25:44.850Z,7.13
2019-03-05T15:28:15.019Z,8.03
2019-03-05T15:30:45.250Z,9.90
2019-03-05T15:33:15.314Z,4.83
2019-03-05T15:35:45.536Z,4.53
2019-03-05T15:38:15.877Z,13.43
2019-03-05T15:40:45.957Z,11.80
2019-03-05T15:43:15.967Z,8.43
2019-03-05T15:45:46.236Z,7.47
2019-03-05T15:48:16.490Z,9.10
2019-03-05T15:50:46.561Z,16.30
2019-03-05T15:53:16.807Z,5.97
2019-03-05T15:55:46.815Z,7.47
2019-03-05T15:58:17.049Z,14.87
2019-03-05T16:00:47.237Z,4.50
2019-03-05T16:03:17.442Z,5.87
2019-03-05T16:05:47.569Z,7.67
2019-03-05T16:08:20.981Z,8.17
2019-03-05T16:10:50.460Z,14.40
2019-03-05T16:13:21.467Z,8.60
2019-03-05T16:15:51.578Z,12.53
2019-03-05T16:18:21.598Z,51.00
2019-03-05T16:20:51.827Z,32.53
2019-03-05T16:23:22.277Z,17.17
2019-03-05T16:25:52.703Z,74.77
2019-03-05T16:28:23.148Z,18.60
2019-03-05T16:31:21.944Z,6.63
2019-03-05T16:34:13.010Z,24.13
2019-03-05T16:37:02.084Z,44.70
2019-03-05T16:39:41.280Z,39.10
2019-03-05T16:42:32.239Z,32.80
2019-03-05T16:45:20.496Z,34.57
2019-03-05T16:48:15.556Z,11.83
2019-03-05T16:51:07.546Z,19.00
2019-03-05T16:53:52.795Z,41.67
2019-03-05T16:56:41.755Z,31.57
2019-03-05T16:59:34.011Z,26.53
2019-03-05T17:02:26.187Z,23.17
2019-03-05T17:05:24.076Z,24.90
2019-03-05T17:08:02.884Z,12.43
2019-03-05T17:10:51.044Z,11.00
2019-03-05T17:13:21.276Z,21.10
2019-03-05T17:15:51.353Z,18.40
2019-03-05T17:18:21.489Z,22.23
2019-03-05T17:20:51.696Z,16.17
2019-03-05T17:23:22.144Z,51.67
2019-03-05T17:25:52.428Z,43.47
2019-03-05T17:28:22.560Z,43.77
2019-03-05T17:30:52.783Z,60.83
2019-03-05T17:33:22.994Z,77.23
2019-03-05T17:35:53.120Z,29.20
2019-03-05T17:38:23.258Z,20.50
2019-03-05T17:40:53.465Z,13.07
2019-03-05T17:43:24.020Z,14.07
2019-03-05T17:45:54.060Z,18.83
2019-03-05T17:48:24.116Z,24.83
2019-03-05T17:50:54.323Z,15.73
2019-03-05T17:53:24.538Z,12.73
2019-03-05T17:55:54.557Z,21.83
2019-03-05T17:58:24.767Z,20.50
2019-03-05T18:00:55.089Z,14.00
2019-03-05T18:03:25.241Z,26.67
2019-03-05T18:05:55.833Z,19.87
2019-03-05T18:08:26.050Z,22.83
2019-03-05T18:10:56.185Z,26.03
2019-03-05T18:13:26.308Z,31.40
2019-03-05T18:15:56.505Z,38.73
2019-03-05T18:18:26.725Z,36.83
2019-03-05T18:20:56.680Z,20.17
2019-03-05T18:23:26.983Z,20.60
2019-03-05T18:25:57.343Z,25.43
2019-03-05T18:28:27.923Z,13.33
2019-03-05T18:30:58.149Z,17.73
2019-03-05T18:33:28.304Z,21.47
2019-03-05T18:35:58.496Z,26.23
2019-03-05T18:38:28.774Z,29.33
2019-03-05T18:40:58.998Z,36.10
2019-03-05T18:43:29.240Z,33.10
2019-03-05T18:45:59.368Z,29.17
2019-03-05T18:48:29.523Z,36.07
2019-03-05T18:51:00.117Z,37.97
2019-03-05T18:53:30.400Z,40.57
2019-03-05T18:56:00.553Z,26.20
2019-03-05T18:58:30.499Z,32.97
2019-03-05T19:01:00.729Z,57.33
2019-03-05T19:03:32.061Z,21.77
2019-03-05T19:06:02.349Z,34.40
2019-03-05T19:08:32.277Z,10.77
2019-03-05T19:11:02.885Z,35.60
2019-03-05T19:13:33.334Z,11.60
2019-03-05T19:16:04.194Z,54.57
2019-03-05T19:18:34.501Z,47.63
2019-03-05T19:21:05.004Z,48.60
2019-03-05T19:23:35.461Z,69.13
2019-03-05T19:26:06.791Z,65.27
2019-03-05T19:28:37.005Z,89.27
2019-03-05T19:31:07.296Z,83.43
2019-03-05T19:33:37.480Z,67.47
2019-03-05T19:36:07.889Z,59.77
2019-03-05T19:38:38.113Z,41.10
2019-03-05T19:41:08.383Z,45.97
2019-03-05T19:43:38.533Z,47.30
2019-03-05T19:46:08.750Z,33.00
2019-03-05T19:48:38.977Z,24.70
2019-03-05T19:51:09.093Z,27.73
2019-03-05T19:53:39.349Z,23.17
2019-03-05T19:56:09.584Z,34.90
2019-03-05T19:58:39.932Z,39.43
2019-03-05T20:01:15.957Z,50.93
2019-03-05T20:03:46.273Z,55.07
2019-03-05T20:06:18.223Z,42.27
2019-03-05T20:08:48.452Z,48.23
2019-03-05T20:11:18.688Z,42.83
2019-03-05T20:13:48.935Z,58.27
2019-03-05T20:16:20.424Z,62.70
2019-03-05T20:18:50.609Z,53.37
2019-03-05T20:21:20.830Z,47.50
2019-03-05T20:23:51.046Z,34.03
2019-03-05T20:26:21.344Z,27.10
2019-03-05T20:28:52.649Z,31.60
2019-03-05T20:31:23.052Z,36.77
2019-03-05T20:33:53.370Z,25.93
2019-03-05T20:36:23.407Z,34.03
2019-03-05T20:38:53.640Z,46.97
2019-03-05T20:41:23.661Z,57.93
2019-03-05T20:43:53.701Z,55.83
2019-03-05T20:46:26.866Z,49.27
2019-03-05T20:48:57.098Z,47.27
2019-03-05T20:51:27.238Z,67.70
2019-03-05T20:53:57.900Z,59.60
2019-03-05T20:56:28.128Z,52.00
2019-03-05T20:58:58.347Z,63.83
2019-03-05T21:01:28.570Z,49.67
2019-03-05T21:03:58.638Z,61.93
2019-03-05T21:06:28.885Z,62.87
2019-03-05T21:08:59.104Z,47.23
2019-03-05T21:11:29.152Z,64.70
2019-03-05T21:13:59.307Z,40.20
2019-03-05T21:16:29.514Z,45.83
2019-03-05T21:18:59.467Z,38.23
2019-03-05T21:21:30.122Z,28.63
2019-03-05T21:24:00.341Z,35.40
2019-03-05T21:26:30.744Z,26.93
2019-03-05T21:29:00.882Z,36.03
2019-03-05T21:31:31.103Z,28.10
2019-03-05T21:34:01.448Z,35.40
2019-03-05T21:36:31.571Z,21.47
2019-03-05T21:39:01.778Z,38.27
2019-03-05T21:41:31.986Z,40.13
2019-03-05T21:44:02.177Z,32.67
2019-03-05T21:46:32.100Z,32.67
2019-03-05T21:49:02.024Z,25.03
2019-03-05T21:51:32.237Z,18.77
2019-03-05T21:54:02.443Z,15.77
2019-03-05T21:56:32.571Z,16.50
2019-03-05T21:59:02.771Z,16.00
2019-03-05T22:01:33.369Z,18.00
2019-03-05T22:04:03.413Z,19.67
2019-03-05T22:06:33.634Z,41.03
2019-03-05T22:09:04.816Z,30.23
2019-03-05T22:11:34.928Z,26.43
2019-03-05T22:14:05.038Z,35.27
2019-03-05T22:16:35.241Z,27.23
2019-03-05T22:19:05.456Z,33.27
2019-03-05T22:21:35.470Z,33.47
2019-03-05T22:24:06.074Z,35.20
2019-03-05T22:26:36.496Z,21.10
2019-03-05T22:29:07.282Z,23.57
2019-03-05T22:31:37.203Z,20.27
2019-03-05T22:34:07.373Z,14.47
2019-03-05T22:36:37.585Z,24.93
2019-03-05T22:39:08.890Z,20.50
2019-03-05T22:41:39.607Z,16.17
2019-03-05T22:44:09.638Z,20.00
2019-03-05T22:46:40.229Z,31.03
2019-03-05T22:49:10.437Z,23.60
2019-03-05T22:51:40.356Z,34.60
2019-03-05T22:54:10.282Z,25.73
2019-03-05T22:56:40.503Z,26.33
2019-03-05T22:59:10.776Z,18.43
2019-03-05T23:01:43.424Z,12.70
2019-03-05T23:04:16.118Z,14.53
2019-03-05T23:06:46.340Z,17.73
2019-03-05T23:09:26.945Z,14.77
2019-03-05T23:11:57.351Z,22.43
2019-03-05T23:14:27.471Z,24.80
2019-03-05T23:16:57.661Z,37.00
2019-03-05T23:19:28.523Z,22.70
2019-03-05T23:21:58.839Z,29.30
2019-03-05T23:24:29.031Z,37.73
2019-03-05T23:26:59.141Z,27.03
2019-03-05T23:29:42.942Z,34.67
2019-03-05T23:32:13.786Z,31.27
2019-03-05T23:34:43.990Z,24.90
2019-03-05T23:37:14.102Z,25.27
2019-03-05T23:39:44.460Z,25.53
2019-03-05T23:42:14.669Z,23.33
2019-03-05T23:44:44.850Z,12.60
2019-03-05T23:47:14.975Z,16.63
2019-03-05T23:49:44.980Z,19.70
2019-03-05T23:52:15.195Z,14.23
2019-03-05T23:54:45.394Z,20.57
2019-03-05T23:57:15.416Z,13.70
2019-03-05T23:59:45.605Z,22.43
